Time;durP1;ratioP1;P1;durP2;ratioP2;P2;SDS_P1;SDS_P2;PMS_P1;PMS_P2;Temp;Humidity;BMP_temperature;BMP_pressure;BME280_temperature;BME280_humidity;BME280_pressure;Samples;Min_cycle;Max_cycle;Signal;HPM_P1;HPM_P2
2023/02/04 00:01:27;;;;;;;0.1;0.1;;;;;;;;;;;;;
2023/02/04 00:03:58;;;;;;;0.6;0.6;;;;;;;;;;;;;
2023/02/04 00:06:28;;;;;;;0.2;0.2;;;;;;;;;;;;;
2023/02/04 00:08:57;;;;;;;0.2;0.2;;;;;;;;;;;;;
2023/02/04 00:11:22;;;;;;;0.8;0.8;;;;;;;;;;;;;
2023/02/04 00:13:53;;;;;;;1.8;0.8;;;;;;;;;;;;;
2023/02/04 00:16:19;;;;;;;0.2;0.2;;;;;;;;;;;;;
2023/02/04 00:18:47;;;;;;;0.5;0.2;;;;;;;;;;;;;
2023/02/04 00:21:15;;;;;;;0.1;0.1;;;;;;;;;;;;;
2023/02/04 00:23:50;;;;;;;0.2;0.2;;;;;;;;;;;;;
2023/02/04 00:26:14;;;;;;;0.2;0.2;;;;;;;;;;;;;
2023/02/04 00:28:42;;;;;;;0.6;0.4;;;;;;;;;;;;;
2023/02/04 00:31:08;;;;;;;0.2;0.2;;;;;;;;;;;;;
2023/02/04 00:33:33;;;;;;;0.7;0.3;;;;;;;;;;;;;
2023/02/04 00:35:58;;;;;;;0.6;0.2;;;;;;;;;;;;;
2023/02/04 00:38:26;;;;;;;0.3;0.2;;;;;;;;;;;;;
2023/02/04 00:40:51;;;;;;;0.6;0.3;;;;;;;;;;;;;
2023/02/04 00:43:16;;;;;;;0.2;0.2;;;;;;;;;;;;;
2023/02/04 00:45:41;;;;;;;0.2;0.2;;;;;;;;;;;;;
2023/02/04 00:48:07;;;;;;;0.2;0.2;;;;;;;;;;;;;
2023/02/04 00:50:33;;;;;;;0.1;0.1;;;;;;;;;;;;;
2023/02/04 00:53:00;;;;;;;0.2;0.2;;;;;;;;;;;;;
2023/02/04 00:55:23;;;;;;;0.2;0.2;;;;;;;;;;;;;
2023/02/04 00:57:50;;;;;;;0.2;0.2;;;;;;;;;;;;;
2023/02/04 01:00:14;;;;;;;0.1;0.1;;;;;;;;;;;;;
2023/02/04 01:02:42;;;;;;;0.2;0.2;;;;;;;;;;;;;
2023/02/04 01:05:07;;;;;;;0.1;0.1;;;;;;;;;;;;;
2023/02/04 01:07:32;;;;;;;0.6;0.2;;;;;;;;;;;;;
2023/02/04 01:09:58;;;;;;;0.3;0.3;;;;;;;;;;;;;
2023/02/04 01:12:26;;;;;;;0.1;0.1;;;;;;;;;;;;;
2023/02/04 01:14:48;;;;;;;0.1;0.1;;;;;;;;;;;;;
2023/02/04 01:17:14;;;;;;;1.1;0.2;;;;;;;;;;;;;
2023/02/04 01:19:40;;;;;;;0.2;0.2;;;;;;;;;;;;;
2023/02/04 01:22:06;;;;;;;0.2;0.2;;;;;;;;;;;;;
2023/02/04 01:24:31;;;;;;;0.2;0.2;;;;;;;;;;;;;
2023/02/04 01:26:56;;;;;;;0.3;0.3;;;;;;;;;;;;;
2023/02/04 01:29:22;;;;;;;0.2;0.2;;;;;;;;;;;;;
2023/02/04 01:31:48;;;;;;;0.4;0.3;;;;;;;;;;;;;
2023/02/04 01:34:13;;;;;;;0.2;0.2;;;;;;;;;;;;;
2023/02/04 01:36:40;;;;;;;0.3;0.2;;;;;;;;;;;;;
2023/02/04 01:39:05;;;;;;;0.2;0.2;;;;;;;;;;;;;
2023/02/04 01:41:30;;;;;;;0.2;0.2;;;;;;;;;;;;;
2023/02/04 01:43:55;;;;;;;0.3;0.3;;;;;;;;;;;;;
2023/02/04 01:46:23;;;;;;;0.2;0.2;;;;;;;;;;;;;
2023/02/04 01:48:47;;;;;;;0.2;0.2;;;;;;;;;;;;;
2023/02/04 01:51:12;;;;;;;0.2;0.2;;;;;;;;;;;;;
2023/02/04 01:53:37;;;;;;;0.1;0.1;;;;;;;;;;;;;
2023/02/04 01:56:04;;;;;;;0.1;0.1;;;;;;;;;;;;;
2023/02/04 01:58:29;;;;;;;0.1;0.1;;;;;;;;;;;;;
2023/02/04 02:00:56;;;;;;;0.2;0.1;;;;;;;;;;;;;
2023/02/04 02:03:22;;;;;;;0.1;0.1;;;;;;;;;;;;;
2023/02/04 02:05:47;;;;;;;0.1;0.1;;;;;;;;;;;;;
2023/02/04 02:08:12;;;;;;;0.1;0.1;;;;;;;;;;;;;
2023/02/04 02:10:37;;;;;;;0.1;0.1;;;;;;;;;;;;;
2023/02/04 02:13:02;;;;;;;0.1;0.1;;;;;;;;;;;;;
2023/02/04 02:15:27;;;;;;;0.3;0.1;;;;;;;;;;;;;
2023/02/04 02:17:54;;;;;;;0.6;0.2;;;;;;;;;;;;;
2023/02/04 02:20:19;;;;;;;0.2;0.2;;;;;;;;;;;;;
2023/02/04 02:22:46;;;;;;;0.1;0.1;;;;;;;;;;;;;
2023/02/04 02:25:11;;;;;;;0.1;0.1;;;;;;;;;;;;;
2023/02/04 02:27:38;;;;;;;0.1;0.1;;;;;;;;;;;;;
2023/02/04 02:30:03;;;;;;;0.1;0.1;;;;;;;;;;;;;
2023/02/04 02:32:29;;;;;;;1.4;0.2;;;;;;;;;;;;;
2023/02/04 02:34:54;;;;;;;0.7;0.1;;;;;;;;;;;;;
2023/02/04 02:37:19;;;;;;;0.1;0.1;;;;;;;;;;;;;
2023/02/04 02:39:44;;;;;;;0.1;0.1;;;;;;;;;;;;;
2023/02/04 02:42:11;;;;;;;0.3;0.1;;;;;;;;;;;;;
2023/02/04 02:44:36;;;;;;;0.3;0.3;;;;;;;;;;;;;
2023/02/04 02:47:01;;;;;;;0.1;0.1;;;;;;;;;;;;;
2023/02/04 02:49:28;;;;;;;0.3;0.2;;;;;;;;;;;;;
2023/02/04 02:51:53;;;;;;;0.1;0.1;;;;;;;;;;;;;
2023/02/04 02:54:18;;;;;;;0.1;0.1;;;;;;;;;;;;;
2023/02/04 02:56:43;;;;;;;0.3;0.3;;;;;;;;;;;;;
2023/02/04 02:59:11;;;;;;;0.3;0.3;;;;;;;;;;;;;
2023/02/04 03:01:36;;;;;;;0.4;0.2;;;;;;;;;;;;;
2023/02/04 03:04:02;;;;;;;0.3;0.2;;;;;;;;;;;;;
2023/02/04 03:06:27;;;;;;;0.1;0.1;;;;;;;;;;;;;
2023/02/04 03:08:54;;;;;;;0.3;0.2;;;;;;;;;;;;;
2023/02/04 03:11:17;;;;;;;1;0.2;;;;;;;;;;;;;
2023/02/04 03:13:43;;;;;;;0.2;0.2;;;;;;;;;;;;;
2023/02/04 03:16:08;;;;;;;0.3;0.2;;;;;;;;;;;;;
2023/02/04 03:18:36;;;;;;;0.2;0.2;;;;;;;;;;;;;
2023/02/04 03:21:03;;;;;;;1;0.1;;;;;;;;;;;;;
2023/02/04 03:23:28;;;;;;;0.2;0.2;;;;;;;;;;;;;
2023/02/04 03:25:53;;;;;;;0.3;0.2;;;;;;;;;;;;;
2023/02/04 03:28:19;;;;;;;0.2;0.2;;;;;;;;;;;;;
2023/02/04 03:30:54;;;;;;;0.2;0.1;;;;;;;;;;;;;
2023/02/04 03:33:09;;;;;;;0.2;0.2;;;;;;;;;;;;;
2023/02/04 03:35:35;;;;;;;0.3;0.2;;;;;;;;;;;;;
2023/02/04 03:38:00;;;;;;;0.5;0.5;;;;;;;;;;;;;
2023/02/04 03:40:25;;;;;;;0.7;0.4;;;;;;;;;;;;;
2023/02/04 03:42:50;;;;;;;0.2;0.2;;;;;;;;;;;;;
2023/02/04 03:45:18;;;;;;;0.1;0.1;;;;;;;;;;;;;
2023/02/04 03:47:43;;;;;;;0.2;0.2;;;;;;;;;;;;;
2023/02/04 03:50:12;;;;;;;0.1;0.1;;;;;;;;;;;;;
2023/02/04 03:52:35;;;;;;;0.2;0.1;;;;;;;;;;;;;
2023/02/04 03:55:00;;;;;;;0.1;0.1;;;;;;;;;;;;;
2023/02/04 03:57:26;;;;;;;0.1;0.1;;;;;;;;;;;;;
2023/02/04 03:59:52;;;;;;;0.1;0.1;;;;;;;;;;;;;
2023/02/04 04:02:33;;;;;;;0.1;0.1;;;;;;;5.31;95.75391;948.4448;;;;
2023/02/04 04:05:03;;;;;;;0.1;0.1;;;;;;;5.42;94.61426;948.4745;;;;
2023/02/04 04:07:28;;;;;;;0.2;0.1;;;;;;;5.46;94.55859;948.584;;;;
2023/02/04 04:09:56;;;;;;;0.1;0.1;;;;;;;5.53;93.72559;948.6192;;;;
2023/02/04 04:12:22;;;;;;;0.1;0.1;;;;;;;5.44;93.57031;948.6855;;;;
2023/02/04 04:14:52;;;;;;;0.4;0.2;;;;;;;5.32;94.96387;948.8528;;;;
2023/02/04 04:17:17;;;;;;;0.5;0.3;;;;;;;5.35;95.24316;948.754;;;;
2023/02/04 04:19:48;;;;;;;0.1;0.1;;;;;;;5.44;94.87988;948.6872;;;;
2023/02/04 04:27:39;;;;;;;0.1;0.1;;;;;;;5.07;95.5752;948.6777;;;;
2023/02/04 04:30:10;;;;;;;0.1;0.1;;;;;;;4.89;95.83887;948.8398;;;;
2023/02/04 04:32:38;;;;;;;0.1;0.1;;;;;;;4.9;94.12988;948.8839;;;;
2023/02/04 04:35:03;;;;;;;0.1;0.1;;;;;;;5.13;93.48145;948.8532;;;;
2023/02/04 04:37:34;;;;;;;0.3;0.3;;;;;;;5.24;94.84668;948.8325;;;;
2023/02/04 04:40:02;;;;;;;0.2;0.2;;;;;;;5.34;94.13379;948.8031;;;;
2023/02/04 04:42:27;;;;;;;0.2;0.2;;;;;;;5.38;93.50293;948.7222;;;;
2023/02/04 04:44:55;;;;;;;0.2;0.2;;;;;;;5.38;93.69434;948.8619;;;;
2023/02/04 04:47:20;;;;;;;0.4;0.3;;;;;;;5.31;94.11816;948.8967;;;;
2023/02/04 04:49:47;;;;;;;2;1.9;;;;;;;5.07;97.04102;948.9808;;;;
2023/02/04 04:52:12;;;;;;;1.6;1.5;;;;;;;5.07;97.17578;948.9735;;;;
2023/02/04 04:54:39;;;;;;;0.7;0.7;;;;;;;5.11;96.91602;948.9921;;;;
2023/02/04 04:57:04;;;;;;;0.5;0.5;;;;;;;5;98.02734;949.0447;;;;
2023/02/04 04:59:31;;;;;;;2.3;2.2;;;;;;;4.87;98.77637;948.913;;;;
2023/02/04 05:01:56;;;;;;;1.8;1.7;;;;;;;4.99;98.66797;948.9246;;;;
2023/02/04 05:04:26;;;;;;;0.9;0.8;;;;;;;4.99;98.33008;948.8889;;;;
2023/02/04 05:06:51;;;;;;;1.2;1.2;;;;;;;5.02;98.06738;948.9736;;;;
2023/02/04 05:09:18;;;;;;;1.2;1.2;;;;;;;5.02;97.98828;949.0392;;;;
2023/02/04 05:11:43;;;;;;;4.3;4.1;;;;;;;4.86;98.7041;949.0988;;;;
2023/02/04 05:14:09;;;;;;;2.8;2.7;;;;;;;4.79;99.06152;949.1149;;;;
2023/02/04 05:16:34;;;;;;;3;2.9;;;;;;;4.83;98.85547;949.14;;;;
2023/02/04 05:19:01;;;;;;;0.5;0.5;;;;;;;4.99;98.15137;949.1306;;;;
2023/02/04 05:21:26;;;;;;;0.7;0.7;;;;;;;4.94;98.04883;949.193;;;;
2023/02/04 05:23:54;;;;;;;4.9;4.5;;;;;;;4.93;97.98828;949.2159;;;;
2023/02/04 05:26:19;;;;;;;1.4;1;;;;;;;4.8;98.92871;949.181;;;;
2023/02/04 05:28:48;;;;;;;1.8;1.4;;;;;;;4.96;98.87402;949.1305;;;;
2023/02/04 05:31:16;;;;;;;2.1;2;;;;;;;5.07;97.875;949.163;;;;
2023/02/04 05:33:42;;;;;;;1.2;1.2;;;;;;;5.03;97.69727;949.1847;;;;
2023/02/04 05:36:09;;;;;;;0.4;0.4;;;;;;;5.12;97.24512;949.182;;;;
2023/02/04 05:38:35;;;;;;;0.5;0.5;;;;;;;5.19;96.54883;949.175;;;;
2023/02/04 05:41:03;;;;;;;1.6;1.5;;;;;;;5.24;95.69238;949.2299;;;;
2023/02/04 05:43:28;;;;;;;1.9;1.8;;;;;;;5.07;95.89063;949.2742;;;;
2023/02/04 05:45:53;;;;;;;1.8;1.1;;;;;;;5.15;95.77344;949.2505;;;;
2023/02/04 05:48:20;;;;;;;2.3;1.7;;;;;;;4.95;96.93359;949.2633;;;;
2023/02/04 05:50:45;;;;;;;9.4;8.9;;;;;;;4.89;97.08984;949.3607;;;;
2023/02/04 05:53:13;;;;;;;2.7;2.6;;;;;;;4.96;97.4668;949.4686;;;;
2023/02/04 05:55:38;;;;;;;1.2;1.1;;;;;;;5.05;96.69824;949.5103;;;;
2023/02/04 05:58:07;;;;;;;1.1;1.1;;;;;;;5.24;96.10742;949.5375;;;;
2023/02/04 06:00:32;;;;;;;0.2;0.2;;;;;;;5.13;90.86523;949.3325;;;;
2023/02/04 06:03:02;;;;;;;1;0.2;;;;;;;5.31;91.55566;949.4785;;;;
2023/02/04 06:05:34;;;;;;;2;1.8;;;;;;;5.31;93.74609;949.4635;;;;
2023/02/04 06:08:05;;;;;;;1.1;1;;;;;;;5.01;94.99707;949.5144;;;;
2023/02/04 06:10:30;;;;;;;0.4;0.4;;;;;;;4.77;95.94824;949.5087;;;;
2023/02/04 06:12:56;;;;;;;0.5;0.5;;;;;;;5.03;95.27441;949.6049;;;;
2023/02/04 06:15:22;;;;;;;0.4;0.4;;;;;;;5.04;94.89258;949.5745;;;;
2023/02/04 06:17:51;;;;;;;0.4;0.4;;;;;;;5.13;94.63086;949.5583;;;;
2023/02/04 06:20:15;;;;;;;2;0.5;;;;;;;5.29;94.13477;949.581;;;;
2023/02/04 06:22:42;;;;;;;0.6;0.4;;;;;;;4.96;94.89551;949.6884;;;;
2023/02/04 06:25:07;;;;;;;0.6;0.6;;;;;;;4.96;94.58008;949.6568;;;;
2023/02/04 06:27:34;;;;;;;0.3;0.3;;;;;;;4.89;94.38574;949.6277;;;;
2023/02/04 06:29:59;;;;;;;0.9;0.6;;;;;;;5.01;93.58887;949.6644;;;;
2023/02/04 06:32:26;;;;;;;0.5;0.5;;;;;;;5.06;94.00586;949.5991;;;;
2023/02/04 06:34:51;;;;;;;2.1;1.2;;;;;;;5.07;93.24121;949.683;;;;
2023/02/04 06:37:19;;;;;;;0.6;0.6;;;;;;;5.14;92.49121;949.7458;;;;
2023/02/04 06:39:45;;;;;;;0.7;0.7;;;;;;;5.13;92.51172;949.8123;;;;
2023/02/04 06:42:16;;;;;;;0.5;0.5;;;;;;;5.16;92.39355;949.8003;;;;
2023/02/04 06:44:41;;;;;;;1.1;0.5;;;;;;;5.12;91.71777;949.9498;;;;
2023/02/04 06:47:09;;;;;;;1.5;0.7;;;;;;;5.2;89.66309;949.8672;;;;
2023/02/04 06:49:40;;;;;;;0.7;0.7;;;;;;;5.22;88.49121;949.7576;;;;
2023/02/04 06:56:18;;;;;;;0.4;0.4;;;;;;;5.18;88.85645;949.9891;;;;
2023/02/04 06:58:45;;;;;;;3.5;2.2;;;;;;;4.89;93.98145;949.9364;;;;
2023/02/04 07:01:10;;;;;;;19.1;12.6;;;;;;;4.86;94.97656;949.9854;;;;
2023/02/04 07:03:37;;;;;;;1.6;1.1;;;;;;;4.74;92.3916;950.0223;;;;
2023/02/04 07:06:02;;;;;;;1.8;1.7;;;;;;;4.79;95.28711;950.0416;;;;
2023/02/04 07:08:28;;;;;;;1.6;1.5;;;;;;;4.96;94.50293;950.092;;;;
2023/02/04 07:10:54;;;;;;;6.2;4.4;;;;;;;4.93;95.38477;950.0274;;;;
2023/02/04 07:13:22;;;;;;;16.8;10.2;;;;;;;4.99;95.63379;950.0972;;;;
2023/02/04 07:15:48;;;;;;;7.8;4.7;;;;;;;5.08;94.78809;950.215;;;;
2023/02/04 07:18:16;;;;;;;7.7;3.1;;;;;;;5.11;94.53516;950.1438;;;;
2023/02/04 07:20:40;;;;;;;4.6;1.5;;;;;;;5.21;92.59473;950.1055;;;;
2023/02/04 07:23:07;;;;;;;1.5;1.4;;;;;;;5.24;91.76758;950.2033;;;;
2023/02/04 07:25:33;;;;;;;1.4;0.9;;;;;;;5.37;91.76074;950.1717;;;;
2023/02/04 07:28:00;;;;;;;1.2;0.8;;;;;;;5.53;91.19629;950.3152;;;;
2023/02/04 07:30:24;;;;;;;1.3;0.8;;;;;;;5.61;90.50391;950.325;;;;
2023/02/04 07:32:51;;;;;;;0.8;0.8;;;;;;;5.71;89.13477;950.317;;;;
2023/02/04 07:35:16;;;;;;;1.3;0.7;;;;;;;5.65;88.80957;950.4125;;;;
2023/02/04 07:37:47;;;;;;;3.9;0.8;;;;;;;5.78;88.98242;950.4659;;;;
2023/02/04 07:40:17;;;;;;;1.4;0.9;;;;;;;5.52;87.55078;950.4967;;;;
2023/02/04 07:42:48;;;;;;;1.6;0.8;;;;;;;5.22;88.99023;950.6675;;;;
2023/02/04 07:45:20;;;;;;;1;0.9;;;;;;;4.78;90.05566;950.7073;;;;
2023/02/04 07:47:49;;;;;;;1.7;1.2;;;;;;;4.54;91.52832;950.6423;;;;
2023/02/04 07:50:21;;;;;;;1.3;0.9;;;;;;;4.42;92.12012;950.6921;;;;
2023/02/04 07:52:50;;;;;;;1.5;1;;;;;;;4.33;92.64063;950.7911;;;;
2023/02/04 07:55:17;;;;;;;2.9;1.2;;;;;;;4.43;92.2373;950.7967;;;;
2023/02/04 07:57:43;;;;;;;2.9;1.5;;;;;;;4.33;92.31445;950.6914;;;;
2023/02/04 08:00:08;;;;;;;2;1.5;;;;;;;4.33;92.16797;950.8674;;;;
2023/02/04 08:02:38;;;;;;;2.7;1.9;;;;;;;4.37;91.84082;950.8674;;;;
2023/02/04 08:05:03;;;;;;;3.7;1.9;;;;;;;4.2;92.01563;950.9373;;;;
2023/02/04 08:07:29;;;;;;;4.4;2.2;;;;;;;4.22;91.7041;950.9457;;;;
2023/02/04 08:09:54;;;;;;;3.7;1.8;;;;;;;4.13;92.73242;951.0439;;;;
2023/02/04 08:12:21;;;;;;;6.5;2.5;;;;;;;3.99;92.38672;950.9217;;;;
2023/02/04 08:14:46;;;;;;;8.4;2.9;;;;;;;4.05;93.05273;950.9042;;;;
2023/02/04 08:17:15;;;;;;;5.2;2.1;;;;;;;4.04;92.65723;951.0209;;;;
2023/02/04 08:19:40;;;;;;;5.1;2.3;;;;;;;4.1;92.79297;951.0274;;;;
2023/02/04 08:22:11;;;;;;;7.1;2.5;;;;;;;4.07;92.73047;951.0147;;;;
2023/02/04 08:24:38;;;;;;;6.3;2.6;;;;;;;4.16;92.85352;950.9881;;;;
2023/02/04 08:27:03;;;;;;;3.6;2.3;;;;;;;4.18;92.61914;951.0923;;;;
2023/02/04 08:29:33;;;;;;;4.4;2.3;;;;;;;4.18;92.32617;951.045;;;;
2023/02/04 08:32:03;;;;;;;4.9;2.6;;;;;;;4.22;92.58203;951.0933;;;;
2023/02/04 08:34:33;;;;;;;8.5;3.9;;;;;;;4.2;91.74512;951.0815;;;;
2023/02/04 08:36:58;;;;;;;7.1;2.8;;;;;;;4.31;91.56836;951.1559;;;;
2023/02/04 08:39:26;;;;;;;3.8;2.2;;;;;;;4.42;90.72461;951.17;;;;
2023/02/04 08:41:51;;;;;;;6.7;3;;;;;;;4.18;90.79883;951.1437;;;;
2023/02/04 08:44:21;;;;;;;4.9;2.2;;;;;;;4.33;90.52539;951.1156;;;;
2023/02/04 08:46:46;;;;;;;5.7;2.8;;;;;;;4.39;90.46973;951.1747;;;;
2023/02/04 08:49:13;;;;;;;4.7;2.5;;;;;;;4.4;89.3457;951.2141;;;;
2023/02/04 08:51:39;;;;;;;5.8;2.5;;;;;;;4.51;88.52637;951.2629;;;;
2023/02/04 08:54:08;;;;;;;6.9;2.5;;;;;;;4.62;87.95117;951.2217;;;;
2023/02/04 08:56:34;;;;;;;6.7;2.5;;;;;;;4.36;86.9873;951.2232;;;;
2023/02/04 08:59:02;;;;;;;5.6;2.3;;;;;;;4.19;87.63867;951.3019;;;;
2023/02/04 09:01:32;;;;;;;4.8;2;;;;;;;4.23;88.07422;951.3848;;;;
2023/02/04 09:03:58;;;;;;;4.7;2.1;;;;;;;4.02;88.84082;951.3921;;;;
2023/02/04 09:06:29;;;;;;;4.8;2.1;;;;;;;4;87.94629;951.4188;;;;
2023/02/04 09:08:58;;;;;;;6.3;2;;;;;;;4.05;87.13672;951.4691;;;;
2023/02/04 09:11:23;;;;;;;3.6;1.4;;;;;;;3.96;87.75977;951.5183;;;;
2023/02/04 09:13:55;;;;;;;2.4;1.3;;;;;;;4.02;87.8291;951.5797;;;;
2023/02/04 09:16:22;;;;;;;2.9;1.6;;;;;;;3.93;87.58496;951.6342;;;;
2023/02/04 09:18:47;;;;;;;3.8;1.6;;;;;;;3.77;88.95703;951.6799;;;;
2023/02/04 09:21:16;;;;;;;4.1;1.6;;;;;;;3.88;88.94727;951.7148;;;;
2023/02/04 09:23:41;;;;;;;3.7;1.8;;;;;;;3.87;88.98828;951.7631;;;;
2023/02/04 09:26:06;;;;;;;3.5;1.8;;;;;;;4.01;88.83887;951.7885;;;;
2023/02/04 09:28:31;;;;;;;4.4;1.5;;;;;;;4.11;88.5332;951.8515;;;;
2023/02/04 09:30:59;;;;;;;4.5;2;;;;;;;3.77;88.5293;951.932;;;;
2023/02/04 09:33:23;;;;;;;3.9;1.8;;;;;;;3.65;89.80859;951.9355;;;;
2023/02/04 09:35:53;;;;;;;4.8;1.7;;;;;;;3.78;89.71191;951.9096;;;;
2023/02/04 09:38:22;;;;;;;4.8;1.8;;;;;;;3.8;88.60449;951.9268;;;;
2023/02/04 09:40:48;;;;;;;4.4;1.7;;;;;;;3.92;88.65137;951.9157;;;;
2023/02/04 09:43:15;;;;;;;4.1;1.8;;;;;;;3.77;87.14746;951.8422;;;;
2023/02/04 09:45:40;;;;;;;3.8;1.5;;;;;;;3.93;86.78711;951.8873;;;;
2023/02/04 09:48:06;;;;;;;3.4;1.6;;;;;;;4.13;86.87402;951.8901;;;;
2023/02/04 09:50:32;;;;;;;2.4;1.6;;;;;;;4.25;86.80859;951.8441;;;;
2023/02/04 09:52:59;;;;;;;3.9;1.7;;;;;;;4.66;84.43359;951.8586;;;;
2023/02/04 09:55:24;;;;;;;4.2;2.1;;;;;;;4.73;83.98828;951.8667;;;;
2023/02/04 09:57:50;;;;;;;4.2;2.3;;;;;;;4.96;83.94043;951.8416;;;;
2023/02/04 10:00:46;;;;;;;5.6;2.1;;;;;;;5.44;82.84082;951.8539;;;;
2023/02/04 10:03:11;;;;;;;2.5;1.6;;;;;;;5.6;80.5791;951.8365;;;;
2023/02/04 10:05:39;;;;;;;3.1;1.2;;;;;;;5.97;78.68457;951.8155;;;;
2023/02/04 10:08:04;;;;;;;4.4;1.6;;;;;;;5.97;76.92188;951.7886;;;;
2023/02/04 10:10:33;;;;;;;3.6;1.2;;;;;;;5.67;78.21094;951.7699;;;;
2023/02/04 10:12:58;;;;;;;3.9;1.3;;;;;;;6.19;77.61719;951.8167;;;;
2023/02/04 10:15:26;;;;;;;3.8;1.6;;;;;;;6.52;74.92676;951.832;;;;
2023/02/04 10:17:51;;;;;;;3;1.2;;;;;;;6.82;74.20996;951.7545;;;;
2023/02/04 10:20:19;;;;;;;3.7;1.4;;;;;;;7.17;72.6748;951.6635;;;;
2023/02/04 10:22:44;;;;;;;2.6;1.4;;;;;;;7.34;71.69531;951.6831;;;;
2023/02/04 10:25:19;;;;;;;4.2;1.4;;;;;;;7.05;70.53516;951.6819;;;;
2023/02/04 10:27:44;;;;;;;4.6;1.8;;;;;;;6.94;74.58203;951.7313;;;;
2023/02/04 10:30:09;;;;;;;2.2;1.5;;;;;;;6.68;71.86816;951.6688;;;;
2023/02/04 10:32:35;;;;;;;5.6;2.8;;;;;;;6.84;73.09375;951.6771;;;;
2023/02/04 10:35:04;;;;;;;2.2;1.6;;;;;;;6.81;71.19727;951.6847;;;;
2023/02/04 10:37:30;;;;;;;3;1.4;;;;;;;7.2;72.51953;951.6669;;;;
2023/02/04 10:39:54;;;;;;;2.9;1.2;;;;;;;7.12;71.75879;951.5719;;;;
2023/02/04 10:42:19;;;;;;;3;1;;;;;;;7.49;67.19531;951.5242;;;;
2023/02/04 10:44:46;;;;;;;2.1;0.9;;;;;;;7.37;68.01563;951.5408;;;;
2023/02/04 10:47:11;;;;;;;2.2;1.1;;;;;;;7.37;66.37207;951.6058;;;;
2023/02/04 10:49:36;;;;;;;2.3;1.2;;;;;;;7.43;67.83203;951.6016;;;;
2023/02/04 10:52:03;;;;;;;4;1;;;;;;;7.29;68.5127;951.5225;;;;
2023/02/04 10:54:31;;;;;;;2.2;1.1;;;;;;;7.22;68.70508;951.5343;;;;
2023/02/04 10:56:53;;;;;;;4.1;1.3;;;;;;;7.13;69.17773;951.5832;;;;
2023/02/04 10:59:28;;;;;;;2.5;0.8;;;;;;;7.26;69.65137;951.5874;;;;
2023/02/04 11:01:57;;;;;;;2.5;1.2;;;;;;;7.14;69.89355;951.5804;;;;
2023/02/04 11:04:23;;;;;;;2.9;1.4;;;;;;;6.96;69.43359;951.55;;;;
2023/02/04 11:17:17;;;;;;;4.2;1.7;;;;;;;6.18;71.21777;951.574;;;;
2023/02/04 11:19:43;;;;;;;2.4;1;;;;;;;5.99;72.62109;951.5887;;;;
2023/02/04 11:22:07;;;;;;;3.8;1.2;;;;;;;5.9;71.96191;951.5645;;;;
2023/02/04 11:24:38;;;;;;;4.9;1.4;;;;;;;6.06;71.93164;951.6245;;;;
2023/02/04 11:27:08;;;;;;;2.4;1.3;;;;;;;6.1;70.23242;951.6415;;;;
2023/02/04 11:29:37;;;;;;;3.3;1.3;;;;;;;6.02;70.81934;951.637;;;;
2023/02/04 11:31:58;;;;;;;4.4;1.2;;;;;;;5.64;73.61133;951.6226;;;;
2023/02/04 11:34:26;;;;;;;2.9;1.2;;;;;;;5.86;73.86426;951.5631;;;;
2023/02/04 11:36:55;;;;;;;3;1.4;;;;;;;5.8;74.22461;951.5684;;;;
2023/02/04 11:39:22;;;;;;;4.5;1.6;;;;;;;5.9;73.29492;951.6049;;;;
2023/02/04 11:41:47;;;;;;;3.6;1.6;;;;;;;5.99;72.98145;951.6319;;;;
2023/02/04 11:44:15;;;;;;;3.5;1.5;;;;;;;5.73;73.41211;951.6813;;;;
2023/02/04 11:46:40;;;;;;;3.4;1.3;;;;;;;5.83;73.42969;951.6795;;;;
2023/02/04 11:49:09;;;;;;;5.1;1.5;;;;;;;5.6;72.21484;951.7212;;;;
2023/02/04 11:51:34;;;;;;;5.9;3.3;;;;;;;5.64;73.87109;951.7095;;;;
2023/02/04 11:54:01;;;;;;;4;1.5;;;;;;;5.61;73.70996;951.7506;;;;
2023/02/04 11:56:26;;;;;;;2.4;1.3;;;;;;;5.61;74.9043;951.7551;;;;
2023/02/04 11:58:55;;;;;;;5.5;1.8;;;;;;;5.36;73.92383;951.8283;;;;
2023/02/04 12:01:20;;;;;;;3.8;1.3;;;;;;;5.36;75.60449;951.8567;;;;
2023/02/04 12:03:46;;;;;;;3.2;1.3;;;;;;;5.53;75.60156;951.8892;;;;
2023/02/04 12:06:16;;;;;;;4.4;1.2;;;;;;;5.35;74.80273;951.8933;;;;
2023/02/04 12:08:41;;;;;;;3.4;1.4;;;;;;;5.33;75.76953;951.9317;;;;
2023/02/04 12:11:06;;;;;;;3.8;1.6;;;;;;;5.31;74.85254;951.8661;;;;
2023/02/04 12:13:32;;;;;;;4.7;1.5;;;;;;;5.4;75.89355;951.9966;;;;
2023/02/04 12:15:56;;;;;;;3.5;1.3;;;;;;;5.44;75.63086;951.9345;;;;
2023/02/04 12:18:21;;;;;;;1.5;1.1;;;;;;;5.59;75.3418;951.9467;;;;
2023/02/04 12:20:46;;;;;;;4.5;1.3;;;;;;;5.5;75.68555;951.9476;;;;
2023/02/04 12:23:12;;;;;;;3.6;1.8;;;;;;;5.63;74.78516;951.886;;;;
2023/02/04 12:25:37;;;;;;;5.2;1.2;;;;;;;5.74;74.52051;951.812;;;;
2023/02/04 12:28:05;;;;;;;2.7;1.3;;;;;;;5.85;73.82813;951.856;;;;
2023/02/04 12:30:30;;;;;;;4.9;1.8;;;;;;;5.9;73.43066;951.7978;;;;
2023/02/04 12:32:58;;;;;;;5.4;1.4;;;;;;;5.66;73.78516;951.7017;;;;
2023/02/04 12:35:23;;;;;;;2.8;1.3;;;;;;;5.98;73.57813;951.7958;;;;
2023/02/04 12:37:51;;;;;;;5.5;2.2;;;;;;;5.99;73.53613;951.7918;;;;
2023/02/04 12:40:19;;;;;;;5.5;2.2;;;;;;;5.95;73.20117;951.7598;;;;
2023/02/04 12:42:47;;;;;;;4.1;1.3;;;;;;;5.78;73.20703;951.8284;;;;
2023/02/04 12:45:22;;;;;;;4.4;1.5;;;;;;;6.18;72.39355;951.6603;;;;
2023/02/04 12:47:52;;;;;;;3.6;1.3;;;;;;;6.35;71.68555;951.7065;;;;
2023/02/04 12:50:21;;;;;;;4.3;2.3;;;;;;;6.33;72.52148;951.6703;;;;
2023/02/04 12:52:42;;;;;;;7;3;;;;;;;6.55;73.37207;951.6584;;;;
2023/02/04 12:55:14;;;;;;;5;1.9;;;;;;;6.59;72.12305;951.6437;;;;
2023/02/04 12:57:45;;;;;;;5.1;2;;;;;;;6.51;71.24902;951.6869;;;;
2023/02/04 13:00:13;;;;;;;3.9;1.5;;;;;;;6.55;71.26855;951.6507;;;;
2023/02/04 13:02:38;;;;;;;3.7;2.2;;;;;;;6.82;70.74609;951.7061;;;;
2023/02/04 13:05:15;;;;;;;4.8;2;;;;;;;7.39;68.92676;951.717;;;;
2023/02/04 13:07:46;;;;;;;6.7;2.2;;;;;;;7.46;68.19922;951.7328;;;;
2023/02/04 13:10:11;;;;;;;5.3;2.6;;;;;;;7.42;69.77051;951.6638;;;;
2023/02/04 13:12:36;;;;;;;4.7;2;;;;;;;7.47;68.78027;951.6501;;;;
2023/02/04 13:15:04;;;;;;;5.8;1.8;;;;;;;7.69;68.03027;951.6863;;;;
2023/02/04 13:17:29;;;;;;;5.5;1.9;;;;;;;7.87;66.95801;951.6203;;;;
2023/02/04 13:19:54;;;;;;;4.9;1.6;;;;;;;7.74;66.04297;951.6821;;;;
2023/02/04 13:22:24;;;;;;;4.2;1.6;;;;;;;7.78;67.55859;951.7134;;;;
2023/02/04 13:24:53;;;;;;;4.5;1.6;;;;;;;7.53;68.90234;951.7113;;;;
2023/02/04 13:27:18;;;;;;;4.8;2.1;;;;;;;7.75;66.35156;951.7255;;;;
2023/02/04 13:29:45;;;;;;;4.1;1.9;;;;;;;8.07;66.34375;951.717;;;;
2023/02/04 13:32:10;;;;;;;5.1;1.9;;;;;;;8.38;65.32324;951.7481;;;;
2023/02/04 13:34:35;;;;;;;4.2;2;;;;;;;8.13;65.08008;951.7628;;;;
2023/02/04 13:37:04;;;;;;;4.6;1.6;;;;;;;8.25;64.04297;951.7317;;;;
2023/02/04 13:39:33;;;;;;;3;1.7;;;;;;;8.3;64.57422;951.8369;;;;
2023/02/04 13:41:58;;;;;;;3.3;1.5;;;;;;;9.2;65.02637;951.7992;;;;
2023/02/04 13:44:27;;;;;;;4;1.7;;;;;;;10.18;57.81738;951.7494;;;;
2023/02/04 13:46:52;;;;;;;3.9;1.6;;;;;;;10.62;56.32227;951.8321;;;;
2023/02/04 13:49:20;;;;;;;5.4;2.2;;;;;;;10.34;58.30664;951.8197;;;;
2023/02/04 13:51:44;;;;;;;3.5;1.6;;;;;;;9.64;61.99414;951.8557;;;;
2023/02/04 13:54:09;;;;;;;2.5;1.1;;;;;;;12.26;52.59277;951.7997;;;;
2023/02/04 13:56:36;;;;;;;5.9;1.9;;;;;;;12.46;50.41602;951.8578;;;;
2023/02/04 13:59:00;;;;;;;3.5;1.8;;;;;;;12.78;51.3125;951.8624;;;;
2023/02/04 14:01:29;;;;;;;4.8;1.4;;;;;;;13.17;48.5918;951.8995;;;;
2023/02/04 14:03:53;;;;;;;2.8;1.4;;;;;;;13.21;48.65234;951.8286;;;;
2023/02/04 14:06:21;;;;;;;2.8;1.2;;;;;;;11.12;53.02637;951.9355;;;;
2023/02/04 14:08:45;;;;;;;2.3;1.5;;;;;;;9.82;56.91406;951.9281;;;;
2023/02/04 14:11:13;;;;;;;3.8;1.5;;;;;;;9;59.1377;951.9983;;;;
2023/02/04 14:13:38;;;;;;;4.5;1.7;;;;;;;8.51;61.52637;952.0753;;;;
2023/02/04 14:16:08;;;;;;;3;1.5;;;;;;;9.95;58.10449;952.1011;;;;
2023/02/04 14:18:30;;;;;;;4.1;1.5;;;;;;;10.94;54.2041;952.173;;;;
2023/02/04 14:20:58;;;;;;;3.5;1.4;;;;;;;10.95;54.50293;952.1199;;;;
2023/02/04 14:23:23;;;;;;;4.6;1.8;;;;;;;10.75;54.55762;952.0697;;;;
2023/02/04 14:25:50;;;;;;;2.5;1.4;;;;;;;10.04;56.12207;952.1755;;;;
2023/02/04 14:28:15;;;;;;;4.1;2;;;;;;;9.64;58.08594;952.1356;;;;
2023/02/04 14:30:42;;;;;;;3.4;1.6;;;;;;;9.1;58.59473;952.1654;;;;
2023/02/04 14:33:07;;;;;;;3.7;1.9;;;;;;;8.74;60.70508;952.127;;;;
2023/02/04 14:35:34;;;;;;;2.9;1.3;;;;;;;8.29;62.58398;952.1528;;;;
2023/02/04 14:37:59;;;;;;;5.2;1.7;;;;;;;7.88;64.35254;952.2665;;;;
2023/02/04 14:40:28;;;;;;;2.8;1.7;;;;;;;7.72;65.13379;952.285;;;;
2023/02/04 14:42:53;;;;;;;5.3;1.8;;;;;;;7.45;66.08984;952.3317;;;;
2023/02/04 14:45:21;;;;;;;3.5;1.8;;;;;;;7.39;66.63574;952.3649;;;;
2023/02/04 14:47:46;;;;;;;3.5;1.7;;;;;;;7.17;66.28516;952.3977;;;;
2023/02/04 14:50:16;;;;;;;3.3;1.7;;;;;;;7.16;67.17871;952.4149;;;;
2023/02/04 14:52:47;;;;;;;4;2;;;;;;;6.87;67.5957;952.4811;;;;
2023/02/04 14:55:15;;;;;;;3.7;2.1;;;;;;;6.84;68.36133;952.5131;;;;
2023/02/04 14:57:40;;;;;;;7.4;3.4;;;;;;;6.49;68.48535;952.5703;;;;
2023/02/04 15:00:14;;;;;;;5.2;2.8;;;;;;;6;70.62305;952.6225;;;;
2023/02/04 15:02:41;;;;;;;8.3;3.8;;;;;;;5.73;70.48828;952.621;;;;
2023/02/04 15:05:05;;;;;;;6.3;2;;;;;;;5.61;71.64063;952.5349;;;;
2023/02/04 15:07:32;;;;;;;4.5;1.9;;;;;;;5.85;70.8457;952.551;;;;
2023/02/04 15:09:57;;;;;;;5.2;2;;;;;;;5.98;70.69922;952.5386;;;;
2023/02/04 15:12:26;;;;;;;5.1;2;;;;;;;6.08;70.46582;952.5817;;;;
2023/02/04 15:14:53;;;;;;;6;3.5;;;;;;;5.88;74.83789;952.5915;;;;
2023/02/04 15:17:19;;;;;;;4.1;1.8;;;;;;;5.61;75.40137;952.6228;;;;
2023/02/04 15:19:46;;;;;;;3.9;1.8;;;;;;;5.78;76.70801;952.6277;;;;
2023/02/04 15:22:14;;;;;;;4.4;1.8;;;;;;;5.87;75.06348;952.6583;;;;
2023/02/04 15:24:39;;;;;;;5.7;1.8;;;;;;;5.99;73.21875;952.6155;;;;
2023/02/04 15:27:07;;;;;;;6;4.5;;;;;;;5.54;71.95801;952.5717;;;;
2023/02/04 15:30:43;;;;;;;2.3;1.7;;;;;;;5.69;71.0127;952.5881;;;;
2023/02/04 15:33:15;;;;;;;3.7;2.1;;;;;;;5.96;71.4082;952.6925;;;;
2023/02/04 15:35:39;;;;;;;4.5;1.7;;;;;;;5.72;73.29785;952.7198;;;;
2023/02/04 15:38:05;;;;;;;3.7;2.1;;;;;;;5.64;74.11914;952.7208;;;;
2023/02/04 15:40:31;;;;;;;7.8;4.5;;;;;;;5.56;75.73047;952.762;;;;
2023/02/04 15:42:58;;;;;;;8.1;6;;;;;;;5.51;76.39941;952.6631;;;;
2023/02/04 15:45:23;;;;;;;5.9;3.7;;;;;;;5.54;76.20117;952.8053;;;;
2023/02/04 15:47:49;;;;;;;5.9;3;;;;;;;5.42;76.52832;952.8716;;;;
2023/02/04 15:50:14;;;;;;;5.8;3.7;;;;;;;5.33;77.37109;952.8276;;;;
2023/02/04 15:52:41;;;;;;;5.3;2.9;;;;;;;5.06;75.09961;952.8394;;;;
2023/02/04 15:55:07;;;;;;;6.1;2.5;;;;;;;5.26;75.46289;952.8381;;;;
2023/02/04 15:57:35;;;;;;;6.1;2.8;;;;;;;5.34;76.60547;952.8983;;;;
2023/02/04 16:00:00;;;;;;;5.3;2.7;;;;;;;5.37;74.48828;952.8197;;;;
2023/02/04 16:02:30;;;;;;;7.3;3.9;;;;;;;5.35;76.74219;952.8638;;;;
2023/02/04 16:04:59;;;;;;;6.2;4;;;;;;;5.19;76.18457;952.767;;;;
2023/02/04 16:07:34;;;;;;;7;3;;;;;;;5.08;76.67188;952.9099;;;;